sensor_id;sensor_type;location;lat;lon;timestamp;pressure;altitude;pressure_sealevel;temperature;humidity
69535;BME280;56754;51.568;5.048;2024-03-02T00:02:24;99802.13;;;15.75;54.89
69535;BME280;56754;51.568;5.048;2024-03-02T00:04:50;99797.47;;;15.72;54.55
69535;BME280;56754;51.568;5.048;2024-03-02T00:07:15;99794.00;;;15.72;54.98
69535;BME280;56754;51.568;5.048;2024-03-02T00:09:40;99798.97;;;15.69;54.67
69535;BME280;56754;51.568;5.048;2024-03-02T00:12:06;99804.78;;;15.72;54.69
69535;BME280;56754;51.568;5.048;2024-03-02T00:14:31;99814.78;;;15.71;55.01
69535;BME280;56754;51.568;5.048;2024-03-02T00:16:57;99809.75;;;15.69;54.81
69535;BME280;56754;51.568;5.048;2024-03-02T00:19:22;99809.38;;;15.71;54.88
69535;BME280;56754;51.568;5.048;2024-03-02T00:21:47;99815.91;;;15.70;54.90
69535;BME280;56754;51.568;5.048;2024-03-02T00:24:34;99801.25;;;15.67;55.28
69535;BME280;56754;51.568;5.048;2024-03-02T00:27:00;99802.38;;;15.66;55.38
69535;BME280;56754;51.568;5.048;2024-03-02T00:29:25;99809.69;;;15.66;55.04
69535;BME280;56754;51.568;5.048;2024-03-02T00:31:50;99818.53;;;15.66;55.47
69535;BME280;56754;51.568;5.048;2024-03-02T00:34:17;99817.00;;;15.65;54.95
69535;BME280;56754;51.568;5.048;2024-03-02T00:36:42;99817.00;;;15.65;55.67
69535;BME280;56754;51.568;5.048;2024-03-02T00:39:08;99817.72;;;15.62;55.35
69535;BME280;56754;51.568;5.048;2024-03-02T00:41:33;99806.53;;;15.60;55.84
69535;BME280;56754;51.568;5.048;2024-03-02T00:44:00;99805.81;;;15.63;55.88
69535;BME280;56754;51.568;5.048;2024-03-02T00:46:32;99811.22;;;15.67;55.61
69535;BME280;56754;51.568;5.048;2024-03-02T00:49:00;99806.63;;;15.67;55.30
69535;BME280;56754;51.568;5.048;2024-03-02T00:51:27;99802.06;;;15.68;55.54
69535;BME280;56754;51.568;5.048;2024-03-02T00:53:53;99811.59;;;15.65;55.47
69535;BME280;56754;51.568;5.048;2024-03-02T00:56:19;99815.06;;;15.66;55.73
69535;BME280;56754;51.568;5.048;2024-03-02T00:58:44;99804.66;;;15.64;55.54
69535;BME280;56754;51.568;5.048;2024-03-02T01:01:09;99813.13;;;15.63;55.72
69535;BME280;56754;51.568;5.048;2024-03-02T01:03:35;99803.09;;;15.63;55.83
69535;BME280;56754;51.568;5.048;2024-03-02T01:06:00;99804.63;;;15.61;55.81
69535;BME280;56754;51.568;5.048;2024-03-02T01:08:26;99821.53;;;15.61;55.97
69535;BME280;56754;51.568;5.048;2024-03-02T01:10:51;99829.63;;;15.61;55.79
69535;BME280;56754;51.568;5.048;2024-03-02T01:13:17;99823.47;;;15.61;55.51
69535;BME280;56754;51.568;5.048;2024-03-02T01:15:42;99822.34;;;15.62;55.94
69535;BME280;56754;51.568;5.048;2024-03-02T01:18:07;99840.78;;;15.60;55.60
69535;BME280;56754;51.568;5.048;2024-03-02T01:20:32;99838.09;;;15.60;55.73
69535;BME280;56754;51.568;5.048;2024-03-02T01:22:58;99831.94;;;15.59;55.89
69535;BME280;56754;51.568;5.048;2024-03-02T01:25:23;99841.94;;;15.59;55.90
69535;BME280;56754;51.568;5.048;2024-03-02T01:27:48;99835.00;;;15.61;56.03
69535;BME280;56754;51.568;5.048;2024-03-02T01:30:14;99838.09;;;15.60;55.76
69535;BME280;56754;51.568;5.048;2024-03-02T01:32:39;99835.41;;;15.60;56.16
69535;BME280;56754;51.568;5.048;2024-03-02T01:35:05;99833.13;;;15.62;55.88
69535;BME280;56754;51.568;5.048;2024-03-02T01:37:31;99840.00;;;15.59;55.55
69535;BME280;56754;51.568;5.048;2024-03-02T01:39:56;99851.19;;;15.61;55.72
69535;BME280;56754;51.568;5.048;2024-03-02T01:42:21;99851.97;;;15.62;55.35
69535;BME280;56754;51.568;5.048;2024-03-02T01:44:46;99853.50;;;15.63;55.75
69535;BME280;56754;51.568;5.048;2024-03-02T01:47:12;99851.59;;;15.63;55.79
69535;BME280;56754;51.568;5.048;2024-03-02T01:49:37;99846.59;;;15.62;55.61
69535;BME280;56754;51.568;5.048;2024-03-02T01:52:03;99849.66;;;15.64;55.81
69535;BME280;56754;51.568;5.048;2024-03-02T01:54:28;99844.66;;;15.62;55.61
69535;BME280;56754;51.568;5.048;2024-03-02T01:56:54;99831.97;;;15.63;56.09
69535;BME280;56754;51.568;5.048;2024-03-02T01:59:19;99835.81;;;15.62;55.93
69535;BME280;56754;51.568;5.048;2024-03-02T02:01:44;99841.56;;;15.60;56.02
69535;BME280;56754;51.568;5.048;2024-03-02T02:04:09;99851.19;;;15.61;56.06
69535;BME280;56754;51.568;5.048;2024-03-02T02:06:35;99851.56;;;15.60;55.84
69535;BME280;56754;51.568;5.048;2024-03-02T02:09:00;99851.97;;;15.62;56.00
69535;BME280;56754;51.568;5.048;2024-03-02T02:11:26;99827.72;;;15.62;55.76
69535;BME280;56754;51.568;5.048;2024-03-02T02:13:51;99830.78;;;15.60;55.54
69535;BME280;56754;51.568;5.048;2024-03-02T02:16:18;99835.81;;;15.62;55.84
69535;BME280;56754;51.568;5.048;2024-03-02T02:18:43;99837.72;;;15.61;55.83
69535;BME280;56754;51.568;5.048;2024-03-02T02:21:08;99842.31;;;15.61;55.77
69535;BME280;56754;51.568;5.048;2024-03-02T02:23:33;99841.19;;;15.62;55.90
69535;BME280;56754;51.568;5.048;2024-03-02T02:25:59;99845.03;;;15.61;55.82
69535;BME280;56754;51.568;5.048;2024-03-02T02:28:24;99846.59;;;15.62;55.90
69535;BME280;56754;51.568;5.048;2024-03-02T02:30:49;99838.84;;;15.60;55.73
69535;BME280;56754;51.568;5.048;2024-03-02T02:33:14;99837.34;;;15.63;55.85
69535;BME280;56754;51.568;5.048;2024-03-02T02:35:40;99831.19;;;15.62;55.83
69535;BME280;56754;51.568;5.048;2024-03-02T02:38:05;99837.72;;;15.61;56.06
69535;BME280;56754;51.568;5.048;2024-03-02T02:40:31;99843.09;;;15.61;56.01
69535;BME280;56754;51.568;5.048;2024-03-02T02:42:57;99831.16;;;15.59;55.89
69535;BME280;56754;51.568;5.048;2024-03-02T02:45:22;99834.63;;;15.59;55.70
69535;BME280;56754;51.568;5.048;2024-03-02T02:47:48;99824.63;;;15.60;55.79
69535;BME280;56754;51.568;5.048;2024-03-02T02:50:13;99828.09;;;15.60;55.48
69535;BME280;56754;51.568;5.048;2024-03-02T02:52:41;99828.84;;;15.61;55.79
69535;BME280;56754;51.568;5.048;2024-03-02T02:55:08;99834.63;;;15.59;55.40
69535;BME280;56754;51.568;5.048;2024-03-02T02:57:34;99833.47;;;15.60;55.94
69535;BME280;56754;51.568;5.048;2024-03-02T03:00:00;99830.00;;;15.60;55.80
69535;BME280;56754;51.568;5.048;2024-03-02T03:02:27;99821.94;;;15.60;55.26
69535;BME280;56754;51.568;5.048;2024-03-02T03:04:53;99834.25;;;15.61;55.15
69535;BME280;56754;51.568;5.048;2024-03-02T03:07:18;99830.78;;;15.60;55.62
69535;BME280;56754;51.568;5.048;2024-03-02T03:09:43;99832.31;;;15.61;55.52
69535;BME280;56754;51.568;5.048;2024-03-02T03:12:09;99833.13;;;15.62;55.16
69535;BME280;56754;51.568;5.048;2024-03-02T03:14:34;99834.28;;;15.64;55.51
69535;BME280;56754;51.568;5.048;2024-03-02T03:16:59;99840.47;;;15.65;55.51
69535;BME280;56754;51.568;5.048;2024-03-02T03:19:24;99843.91;;;15.62;54.91
69535;BME280;56754;51.568;5.048;2024-03-02T03:21:50;99841.59;;;15.64;55.40
69535;BME280;56754;51.568;5.048;2024-03-02T03:24:15;99839.28;;;15.62;55.40
69535;BME280;56754;51.568;5.048;2024-03-02T03:26:40;99841.19;;;15.62;55.30
69535;BME280;56754;51.568;5.048;2024-03-02T03:29:05;99850.06;;;15.62;55.46
69535;BME280;56754;51.568;5.048;2024-03-02T03:31:31;99850.41;;;15.61;55.40
69535;BME280;56754;51.568;5.048;2024-03-02T03:33:56;99846.59;;;15.62;55.60
69535;BME280;56754;51.568;5.048;2024-03-02T03:36:21;99853.47;;;15.59;55.41
69535;BME280;56754;51.568;5.048;2024-03-02T03:38:47;99856.16;;;15.59;55.77
69535;BME280;56754;51.568;5.048;2024-03-02T03:41:12;99852.00;;;15.65;56.36
69535;BME280;56754;51.568;5.048;2024-03-02T03:43:37;99857.13;;;15.71;55.72
69535;BME280;56754;51.568;5.048;2024-03-02T03:46:03;99854.53;;;15.81;55.01
69535;BME280;56754;51.568;5.048;2024-03-02T03:48:28;99857.69;;;15.90;54.97
69535;BME280;56754;51.568;5.048;2024-03-02T03:50:53;99860.84;;;15.96;54.64
69535;BME280;56754;51.568;5.048;2024-03-02T03:53:18;99855.09;;;15.98;54.96
69535;BME280;56754;51.568;5.048;2024-03-02T03:55:44;99865.16;;;16.01;54.88
69535;BME280;56754;51.568;5.048;2024-03-02T03:58:09;99859.75;;;16.01;54.39
69535;BME280;56754;51.568;5.048;2024-03-02T04:00:34;99858.59;;;16.02;54.49
69535;BME280;56754;51.568;5.048;2024-03-02T04:03:00;99856.31;;;16.04;54.06
69535;BME280;56754;51.568;5.048;2024-03-02T04:05:25;99863.63;;;16.03;54.86
69535;BME280;56754;51.568;5.048;2024-03-02T04:07:50;99857.09;;;16.04;54.42
69535;BME280;56754;51.568;5.048;2024-03-02T04:10:15;99858.25;;;16.03;54.12
69535;BME280;56754;51.568;5.048;2024-03-02T04:12:41;99859.41;;;16.06;54.40
69535;BME280;56754;51.568;5.048;2024-03-02T04:15:06;99860.97;;;16.07;54.17
69535;BME280;56754;51.568;5.048;2024-03-02T04:17:33;99864.03;;;16.05;54.24
69535;BME280;56754;51.568;5.048;2024-03-02T04:19:59;99858.63;;;16.05;54.32
69535;BME280;56754;51.568;5.048;2024-03-02T04:22:24;99865.94;;;16.05;54.04
69535;BME280;56754;51.568;5.048;2024-03-02T04:24:50;99864.03;;;16.05;54.16
69535;BME280;56754;51.568;5.048;2024-03-02T04:27:15;99866.72;;;16.05;53.90
69535;BME280;56754;51.568;5.048;2024-03-02T04:29:40;99866.31;;;16.03;54.47
69535;BME280;56754;51.568;5.048;2024-03-02T04:32:06;99866.31;;;16.03;53.93
69535;BME280;56754;51.568;5.048;2024-03-02T04:34:31;99869.03;;;16.03;53.86
69535;BME280;56754;51.568;5.048;2024-03-02T04:36:56;99877.88;;;16.04;54.09
69535;BME280;56754;51.568;5.048;2024-03-02T04:39:21;99883.28;;;16.04;53.75
69535;BME280;56754;51.568;5.048;2024-03-02T04:41:47;99884.41;;;16.03;54.17
69535;BME280;56754;51.568;5.048;2024-03-02T04:44:12;99888.25;;;16.02;53.98
69535;BME280;56754;51.568;5.048;2024-03-02T04:46:37;99873.22;;;16.01;53.81
69535;BME280;56754;51.568;5.048;2024-03-02T04:49:02;99880.16;;;16.02;54.05
69535;BME280;56754;51.568;5.048;2024-03-02T04:51:28;99887.47;;;16.01;53.66
69535;BME280;56754;51.568;5.048;2024-03-02T04:53:53;99887.06;;;15.99;54.23
69535;BME280;56754;51.568;5.048;2024-03-02T04:56:18;99884.78;;;16.01;53.71
69535;BME280;56754;51.568;5.048;2024-03-02T04:58:44;99892.44;;;15.99;53.62
69535;BME280;56754;51.568;5.048;2024-03-02T05:01:09;99898.59;;;16.00;53.70
69535;BME280;56754;51.568;5.048;2024-03-02T05:03:34;99905.56;;;16.01;53.60
69535;BME280;56754;51.568;5.048;2024-03-02T05:06:00;99901.31;;;16.00;53.84
69535;BME280;56754;51.568;5.048;2024-03-02T05:08:25;99896.72;;;16.00;53.67
69535;BME280;56754;51.568;5.048;2024-03-02T05:10:50;99890.91;;;15.98;53.79
69535;BME280;56754;51.568;5.048;2024-03-02T05:13:15;99899.41;;;16.00;53.84
69535;BME280;56754;51.568;5.048;2024-03-02T05:15:41;99894.03;;;16.00;53.33
69535;BME280;56754;51.568;5.048;2024-03-02T05:18:06;99894.78;;;16.01;53.58
69535;BME280;56754;51.568;5.048;2024-03-02T05:20:31;99892.88;;;16.01;53.46
69535;BME280;56754;51.568;5.048;2024-03-02T05:22:57;99898.59;;;16.00;53.58
69535;BME280;56754;51.568;5.048;2024-03-02T05:25:22;99893.22;;;16.00;53.60
69535;BME280;56754;51.568;5.048;2024-03-02T05:27:47;99897.06;;;15.99;53.38
69535;BME280;56754;51.568;5.048;2024-03-02T05:30:13;99899.00;;;15.98;53.56
69535;BME280;56754;51.568;5.048;2024-03-02T05:32:38;99902.47;;;15.99;53.24
69535;BME280;56754;51.568;5.048;2024-03-02T05:35:04;99910.13;;;15.97;53.83
69535;BME280;56754;51.568;5.048;2024-03-02T05:37:29;99905.91;;;15.99;53.44
69535;BME280;56754;51.568;5.048;2024-03-02T05:39:55;99909.34;;;15.96;53.00
69535;BME280;56754;51.568;5.048;2024-03-02T05:42:20;99909.34;;;15.96;53.55
69535;BME280;56754;51.568;5.048;2024-03-02T05:44:45;99907.81;;;15.95;53.21
69535;BME280;56754;51.568;5.048;2024-03-02T05:47:11;99907.41;;;15.93;53.44
69535;BME280;56754;51.568;5.048;2024-03-02T05:49:36;99904.69;;;15.93;53.42
69535;BME280;56754;51.568;5.048;2024-03-02T05:52:01;99913.16;;;15.91;53.18
69535;BME280;56754;51.568;5.048;2024-03-02T05:54:26;99915.06;;;15.91;53.62
69535;BME280;56754;51.568;5.048;2024-03-02T05:56:52;99916.97;;;15.90;53.19
69535;BME280;56754;51.568;5.048;2024-03-02T05:59:17;99908.13;;;15.90;53.57
69535;BME280;56754;51.568;5.048;2024-03-02T06:01:43;99926.63;;;15.91;53.33
69535;BME280;56754;51.568;5.048;2024-03-02T06:04:10;99919.69;;;15.90;53.10
69535;BME280;56754;51.568;5.048;2024-03-02T06:06:35;99916.97;;;15.90;53.17
69535;BME280;56754;51.568;5.048;2024-03-02T06:09:01;99923.94;;;15.91;53.32
69535;BME280;56754;51.568;5.048;2024-03-02T06:11:26;99923.16;;;15.91;53.56
69535;BME280;56754;51.568;5.048;2024-03-02T06:13:52;99923.94;;;15.91;53.04
69535;BME280;56754;51.568;5.048;2024-03-02T06:16:17;99921.19;;;15.88;53.22
69535;BME280;56754;51.568;5.048;2024-03-02T06:18:42;99918.09;;;15.86;53.99
69535;BME280;56754;51.568;5.048;2024-03-02T06:21:08;99925.09;;;15.94;53.56
69535;BME280;56754;51.568;5.048;2024-03-02T06:23:33;99920.56;;;15.98;53.12
69535;BME280;56754;51.568;5.048;2024-03-02T06:25:58;99920.97;;;16.00;53.32
69535;BME280;56754;51.568;5.048;2024-03-02T06:28:24;99931.75;;;16.00;52.88
69535;BME280;56754;51.568;5.048;2024-03-02T06:30:49;99931.75;;;16.00;52.90
69535;BME280;56754;51.568;5.048;2024-03-02T06:33:14;99940.19;;;15.99;53.26
69535;BME280;56754;51.568;5.048;2024-03-02T06:35:40;99940.19;;;15.99;53.04
69535;BME280;56754;51.568;5.048;2024-03-02T06:38:06;99943.25;;;15.97;53.35
69535;BME280;56754;51.568;5.048;2024-03-02T06:40:31;99938.66;;;15.98;52.91
69535;BME280;56754;51.568;5.048;2024-03-02T06:42:57;99941.69;;;15.96;52.77
69535;BME280;56754;51.568;5.048;2024-03-02T06:45:22;99945.53;;;15.95;53.06
69535;BME280;56754;51.568;5.048;2024-03-02T06:47:47;99942.44;;;15.93;52.86
69535;BME280;56754;51.568;5.048;2024-03-02T06:50:13;99949.31;;;15.90;53.27
69535;BME280;56754;51.568;5.048;2024-03-02T06:52:38;99948.19;;;15.91;52.86
69535;BME280;56754;51.568;5.048;2024-03-02T06:55:03;99958.19;;;15.91;52.77
69535;BME280;56754;51.568;5.048;2024-03-02T06:57:29;99958.19;;;15.91;52.93
69535;BME280;56754;51.568;5.048;2024-03-02T06:59:54;99960.09;;;15.90;52.85
69535;BME280;56754;51.568;5.048;2024-03-02T07:02:20;99959.72;;;15.88;53.44
69535;BME280;56754;51.568;5.048;2024-03-02T07:04:45;99957.78;;;15.89;53.01
69535;BME280;56754;51.568;5.048;2024-03-02T07:07:11;99959.28;;;15.86;52.96
69535;BME280;56754;51.568;5.048;2024-03-02T07:09:36;99972.31;;;15.81;53.03
69535;BME280;56754;51.568;5.048;2024-03-02T07:12:01;99955.63;;;15.72;53.34
69535;BME280;56754;51.568;5.048;2024-03-02T07:14:27;99960.09;;;15.64;53.12
69535;BME280;56754;51.568;5.048;2024-03-02T07:16:52;99964.25;;;15.58;53.03
69535;BME280;56754;51.568;5.048;2024-03-02T07:19:17;99975.72;;;15.51;53.90
69535;BME280;56754;51.568;5.048;2024-03-02T07:21:42;99976.66;;;15.36;53.93
69535;BME280;56754;51.568;5.048;2024-03-02T07:24:08;99982.97;;;15.20;54.10
69535;BME280;56754;51.568;5.048;2024-03-02T07:26:33;99988.88;;;15.07;55.10
69535;BME280;56754;51.568;5.048;2024-03-02T07:28:58;99979.06;;;14.95;54.43
69535;BME280;56754;51.568;5.048;2024-03-02T07:31:24;99988.88;;;14.84;54.79
69535;BME280;56754;51.568;5.048;2024-03-02T07:33:51;99987.91;;;14.72;55.26
69535;BME280;56754;51.568;5.048;2024-03-02T07:36:17;99975.03;;;14.62;55.89
69535;BME280;56754;51.568;5.048;2024-03-02T07:38:43;99982.91;;;14.51;56.75
69535;BME280;56754;51.568;5.048;2024-03-02T07:41:09;99986.94;;;14.42;56.73
69535;BME280;56754;51.568;5.048;2024-03-02T07:43:34;99984.13;;;14.34;56.86
69535;BME280;56754;51.568;5.048;2024-03-02T07:45:59;99982.47;;;14.30;57.19
69535;BME280;56754;51.568;5.048;2024-03-02T07:48:25;99987.72;;;14.23;57.32
69535;BME280;56754;51.568;5.048;2024-03-02T07:50:51;99989.22;;;14.20;57.63
69535;BME280;56754;51.568;5.048;2024-03-02T07:53:16;99989.91;;;14.17;57.60
69535;BME280;56754;51.568;5.048;2024-03-02T07:55:41;99991.72;;;14.13;57.97
69535;BME280;56754;51.568;5.048;2024-03-02T07:58:08;99993.22;;;14.10;57.97
69535;BME280;56754;51.568;5.048;2024-03-02T08:00:33;99987.78;;;14.07;57.95
69535;BME280;56754;51.568;5.048;2024-03-02T08:02:59;99993.06;;;14.03;58.33
69535;BME280;56754;51.568;5.048;2024-03-02T08:05:25;99989.19;;;14.01;58.46
69535;BME280;56754;51.568;5.048;2024-03-02T08:07:51;99990.66;;;13.98;58.73
69535;BME280;56754;51.568;5.048;2024-03-02T08:10:16;100001.78;;;13.97;59.37
69535;BME280;56754;51.568;5.048;2024-03-02T08:12:41;99993.66;;;13.93;59.18
69535;BME280;56754;51.568;5.048;2024-03-02T08:15:07;99991.28;;;13.92;59.36
69535;BME280;56754;51.568;5.048;2024-03-02T08:17:32;99997.00;;;13.90;59.00
69535;BME280;56754;51.568;5.048;2024-03-02T08:19:58;99995.81;;;13.87;59.24
69535;BME280;56754;51.568;5.048;2024-03-02T08:22:23;99995.03;;;13.87;59.55
69535;BME280;56754;51.568;5.048;2024-03-02T08:24:49;99988.09;;;13.86;59.70
69535;BME280;56754;51.568;5.048;2024-03-02T08:27:14;99989.25;;;13.85;59.92
69535;BME280;56754;51.568;5.048;2024-03-02T08:29:39;99989.59;;;13.83;59.84
69535;BME280;56754;51.568;5.048;2024-03-02T08:32:05;99988.81;;;13.83;60.06
69535;BME280;56754;51.568;5.048;2024-03-02T08:34:31;99991.16;;;13.84;60.47
69535;BME280;56754;51.568;5.048;2024-03-02T08:36:56;99988.09;;;13.86;60.20
69535;BME280;56754;51.568;5.048;2024-03-02T08:39:22;99988.88;;;13.86;60.06
69535;BME280;56754;51.568;5.048;2024-03-02T08:41:47;99985.78;;;13.84;59.88
69535;BME280;56754;51.568;5.048;2024-03-02T08:44:13;99999.22;;;13.84;59.48
69535;BME280;56754;51.568;5.048;2024-03-02T08:46:39;99999.22;;;13.84;59.64
69535;BME280;56754;51.568;5.048;2024-03-02T08:49:05;99991.94;;;13.85;59.78
69535;BME280;56754;51.568;5.048;2024-03-02T08:51:30;100001.91;;;13.84;59.83
69535;BME280;56754;51.568;5.048;2024-03-02T08:53:56;99990.34;;;13.84;59.84
69535;BME280;56754;51.568;5.048;2024-03-02T08:56:22;99996.88;;;13.83;59.55
69535;BME280;56754;51.568;5.048;2024-03-02T08:58:47;99999.13;;;13.81;59.40
69535;BME280;56754;51.568;5.048;2024-03-02T09:01:13;99997.22;;;13.81;59.82
69535;BME280;56754;51.568;5.048;2024-03-02T09:03:38;100006.06;;;13.82;60.01
69535;BME280;56754;51.568;5.048;2024-03-02T09:06:03;100004.16;;;13.82;59.96
69535;BME280;56754;51.568;5.048;2024-03-02T09:08:29;100007.59;;;13.83;59.68
69535;BME280;56754;51.568;5.048;2024-03-02T09:10:55;100015.66;;;13.83;59.46
69535;BME280;56754;51.568;5.048;2024-03-02T09:13:21;100021.03;;;13.83;59.67
69535;BME280;56754;51.568;5.048;2024-03-02T09:15:46;100029.88;;;13.83;59.44
69535;BME280;56754;51.568;5.048;2024-03-02T09:18:12;100012.22;;;13.82;59.51
69535;BME280;56754;51.568;5.048;2024-03-02T09:20:37;100009.53;;;13.82;59.57
69535;BME280;56754;51.568;5.048;2024-03-02T09:23:02;100007.97;;;13.81;59.06
69535;BME280;56754;51.568;5.048;2024-03-02T09:25:28;100010.66;;;13.81;59.56
69535;BME280;56754;51.568;5.048;2024-03-02T09:27:53;100013.34;;;13.81;59.86
69535;BME280;56754;51.568;5.048;2024-03-02T09:30:18;99998.78;;;13.82;59.19
69535;BME280;56754;51.568;5.048;2024-03-02T09:32:44;100006.84;;;13.82;59.33
69535;BME280;56754;51.568;5.048;2024-03-02T09:35:09;99998.78;;;13.82;59.16
69535;BME280;56754;51.568;5.048;2024-03-02T09:37:35;99998.00;;;13.82;59.11
69535;BME280;56754;51.568;5.048;2024-03-02T09:40:00;99998.78;;;13.82;59.10
69535;BME280;56754;51.568;5.048;2024-03-02T09:42:26;99991.94;;;13.85;59.25
69535;BME280;56754;51.568;5.048;2024-03-02T09:44:52;99996.16;;;13.86;59.29
69535;BME280;56754;51.568;5.048;2024-03-02T09:47:17;99998.84;;;13.86;59.55
69535;BME280;56754;51.568;5.048;2024-03-02T09:49:43;99994.25;;;13.86;59.74
69535;BME280;56754;51.568;5.048;2024-03-02T09:52:08;100003.44;;;13.85;59.76
69535;BME280;56754;51.568;5.048;2024-03-02T09:54:33;99996.16;;;13.86;59.59
69535;BME280;56754;51.568;5.048;2024-03-02T09:56:59;100004.59;;;13.84;58.87
69535;BME280;56754;51.568;5.048;2024-03-02T09:59:24;99998.78;;;13.82;58.74
69535;BME280;56754;51.568;5.048;2024-03-02T10:02:00;100009.53;;;13.82;58.68
69535;BME280;56754;51.568;5.048;2024-03-02T10:04:26;100005.28;;;13.81;58.68
69535;BME280;56754;51.568;5.048;2024-03-02T10:09:34;100004.06;;;13.79;58.34
69535;BME280;56754;51.568;5.048;2024-03-02T10:12:07;99999.47;;;13.79;58.33
69535;BME280;56754;51.568;5.048;2024-03-02T10:14:33;99989.88;;;13.78;58.60
69535;BME280;56754;51.568;5.048;2024-03-02T10:17:07;99986.06;;;13.79;59.01
69535;BME280;56754;51.568;5.048;2024-03-02T10:19:33;99983.38;;;13.79;58.61
69535;BME280;56754;51.568;5.048;2024-03-02T10:21:59;99984.50;;;13.78;58.29
69535;BME280;56754;51.568;5.048;2024-03-02T10:24:25;99983.38;;;13.79;58.09
69535;BME280;56754;51.568;5.048;2024-03-02T10:26:50;99978.00;;;13.79;58.50
69535;BME280;56754;51.568;5.048;2024-03-02T10:29:16;99981.81;;;13.78;58.04
69535;BME280;56754;51.568;5.048;2024-03-02T10:31:43;99981.38;;;13.76;57.65
69535;BME280;56754;51.568;5.048;2024-03-02T10:34:10;99989.44;;;13.76;57.91
69535;BME280;56754;51.568;5.048;2024-03-02T10:36:36;99984.84;;;13.77;58.70
69535;BME280;56754;51.568;5.048;2024-03-02T10:39:05;99979.47;;;13.77;57.67
69535;BME280;56754;51.568;5.048;2024-03-02T10:41:38;99974.88;;;13.77;58.33
69535;BME280;56754;51.568;5.048;2024-03-02T10:44:05;99970.28;;;13.78;58.48
69535;BME280;56754;51.568;5.048;2024-03-02T10:46:32;99979.47;;;13.77;57.52
69535;BME280;56754;51.568;5.048;2024-03-02T10:49:02;99969.06;;;13.75;57.81
69535;BME280;56754;51.568;5.048;2024-03-02T10:51:29;99964.84;;;13.74;57.68
69535;BME280;56754;51.568;5.048;2024-03-02T10:53:55;99962.91;;;13.75;58.00
69535;BME280;56754;51.568;5.048;2024-03-02T10:56:46;99970.97;;;13.75;58.62
69535;BME280;56754;51.568;5.048;2024-03-02T10:59:26;99967.94;;;13.76;58.69
69535;BME280;56754;51.568;5.048;2024-03-02T11:01:58;99976.78;;;13.77;58.68
69535;BME280;56754;51.568;5.048;2024-03-02T11:04:24;99978.00;;;13.79;58.82
69535;BME280;56754;51.568;5.048;2024-03-02T11:06:51;99965.69;;;13.78;58.50
69535;BME280;56754;51.568;5.048;2024-03-02T11:09:23;99968.72;;;13.77;58.07
69535;BME280;56754;51.568;5.048;2024-03-02T11:11:58;99960.66;;;13.77;57.82
69535;BME280;56754;51.568;5.048;2024-03-02T11:14:25;99963.34;;;13.77;57.85
69535;BME280;56754;51.568;5.048;2024-03-02T11:16:51;99971.06;;;13.78;58.59
69535;BME280;56754;51.568;5.048;2024-03-02T11:19:17;99960.34;;;13.78;58.19
69535;BME280;56754;51.568;5.048;2024-03-02T11:21:43;99965.69;;;13.78;57.92
69535;BME280;56754;51.568;5.048;2024-03-02T11:26:53;99964.56;;;13.79;57.91
69535;BME280;56754;51.568;5.048;2024-03-02T11:32:03;99961.09;;;13.79;57.73
69535;BME280;56754;51.568;5.048;2024-03-02T11:34:36;99966.47;;;13.79;57.98
69535;BME280;56754;51.568;5.048;2024-03-02T11:37:03;99962.31;;;13.81;58.24
69535;BME280;56754;51.568;5.048;2024-03-02T11:39:29;99956.13;;;13.81;58.46
69535;BME280;56754;51.568;5.048;2024-03-02T11:41:58;99961.19;;;13.82;58.58
69535;BME280;56754;51.568;5.048;2024-03-02T11:44:27;99954.66;;;13.83;58.61
69535;BME280;56754;51.568;5.048;2024-03-02T11:46:58;99948.19;;;13.84;58.76
69535;BME280;56754;51.568;5.048;2024-03-02T11:49:42;99957.78;;;13.85;58.26
69535;BME280;56754;51.568;5.048;2024-03-02T11:52:10;99955.09;;;13.85;58.31
69535;BME280;56754;51.568;5.048;2024-03-02T11:54:37;99938.97;;;13.85;58.80
69535;BME280;56754;51.568;5.048;2024-03-02T11:57:02;99930.56;;;13.87;58.74
69535;BME280;56754;51.568;5.048;2024-03-02T11:59:31;99927.53;;;13.88;58.86
69535;BME280;56754;51.568;5.048;2024-03-02T12:01:57;99926.38;;;13.89;58.46
69535;BME280;56754;51.568;5.048;2024-03-02T12:04:23;99934.13;;;13.91;58.07
69535;BME280;56754;51.568;5.048;2024-03-02T12:07:01;99922.59;;;13.91;58.34
69535;BME280;56754;51.568;5.048;2024-03-02T12:09:27;99911.03;;;13.90;58.14
69535;BME280;56754;51.568;5.048;2024-03-02T12:12:06;99912.63;;;13.91;58.38
69535;BME280;56754;51.568;5.048;2024-03-02T12:14:32;99913.41;;;13.92;58.64
69535;BME280;56754;51.568;5.048;2024-03-02T12:16:57;99900.41;;;13.94;58.37
69535;BME280;56754;51.568;5.048;2024-03-02T12:19:22;99893.44;;;13.93;58.44
69535;BME280;56754;51.568;5.048;2024-03-02T12:21:48;99886.97;;;13.94;58.24
69535;BME280;56754;51.568;5.048;2024-03-02T12:24:13;99888.50;;;13.95;58.67
69535;BME280;56754;51.568;5.048;2024-03-02T12:26:39;99884.69;;;13.96;58.59
69535;BME280;56754;51.568;5.048;2024-03-02T12:29:05;99882.44;;;13.98;58.60
69535;BME280;56754;51.568;5.048;2024-03-02T12:31:30;99876.34;;;14.01;58.47
69535;BME280;56754;51.568;5.048;2024-03-02T12:33:56;99882.53;;;14.05;58.63
69535;BME280;56754;51.568;5.048;2024-03-02T12:36:22;99873.44;;;14.09;58.52
69535;BME280;56754;51.568;5.048;2024-03-02T12:38:47;99868.91;;;14.14;58.33
69535;BME280;56754;51.568;5.048;2024-03-02T12:41:16;99862.13;;;14.20;57.99
69535;BME280;56754;51.568;5.048;2024-03-02T12:43:41;99862.94;;;14.24;58.34
69535;BME280;56754;51.568;5.048;2024-03-02T12:46:07;99854.94;;;14.27;57.88
69535;BME280;56754;51.568;5.048;2024-03-02T12:48:32;99853.09;;;14.31;57.70
69535;BME280;56754;51.568;5.048;2024-03-02T12:50:58;99863.91;;;14.35;57.95
69535;BME280;56754;51.568;5.048;2024-03-02T12:53:23;99854.38;;;14.38;57.79
69535;BME280;56754;51.568;5.048;2024-03-02T12:55:49;99853.66;;;14.41;57.58
69535;BME280;56754;51.568;5.048;2024-03-02T12:58:21;99856.41;;;14.44;57.64
69535;BME280;56754;51.568;5.048;2024-03-02T13:00:47;99843.34;;;14.46;58.42
69535;BME280;56754;51.568;5.048;2024-03-02T13:03:13;99839.53;;;14.47;57.95